Aviation Digital Data Service (ADDS)

Output produced by METARs form (1140 UTC 19 February 2019)
found at http://www.aviationweather.gov/metar/data/
 
METAR text: GVBA 181900Z 03013KT 9999 BKN015 21/16 Q1015 NOSIG
Conditions at: GVBA (RABIL AIRPORT , CV) observed 1900 UTC 18 February 2019
Temperature: 21.0°C (70°F)
Dewpoint: 16.0°C (61°F) [RH = 73%]
Pressure (altimeter): 29.97 inches Hg (1015.0 mb)
Winds: from the NNE (30 degrees) at 15 MPH (13 knots; 6.7 m/s)
Visibility: 6 or more miles (10+ km)
Ceiling: 1500 feet AGL
Clouds: broken clouds at 1500 feet AGL
Weather: no significant weather observed at this time

METAR text: GVBA 181400Z 02018KT 9999 BKN015 BKN200 23/15 Q1016 NOSIG
Conditions at: GVBA (RABIL AIRPORT , CV) observed 1400 UTC 18 February 2019
Temperature: 23.0°C (73°F)
Dewpoint: 15.0°C (59°F) [RH = 61%]
Pressure (altimeter): 30.00 inches Hg (1016.0 mb)
Winds: from the NNE (20 degrees) at 21 MPH (18 knots; 9.3 m/s)
Visibility: 6 or more miles (10+ km)
Ceiling: 1500 feet AGL
Clouds: broken clouds at 1500 feet AGL
broken clouds at 20000 feet AGL
Weather: no significant weather observed at this time

METAR text: GVBA 181300Z 03017KT 9999 BKN015 SCT200 23/14 Q1018 NOSIG
Conditions at: GVBA (RABIL AIRPORT , CV) observed 1300 UTC 18 February 2019
Temperature: 23.0°C (73°F)
Dewpoint: 14.0°C (57°F) [RH = 57%]
Pressure (altimeter): 30.06 inches Hg (1018.0 mb)
Winds: from the NNE (30 degrees) at 20 MPH (17 knots; 8.7 m/s)
Visibility: 6 or more miles (10+ km)
Ceiling: 1500 feet AGL
Clouds: broken clouds at 1500 feet AGL
scattered clouds at 20000 feet AGL
Weather: no significant weather observed at this time

METAR text: GVBA 181200Z 02018KT 9999 SCT015 SCT100 BKN200 21/14 Q1018 NOSIG
Conditions at: GVBA (RABIL AIRPORT , CV) observed 1200 UTC 18 February 2019
Temperature: 21.0°C (70°F)
Dewpoint: 14.0°C (57°F) [RH = 64%]
Pressure (altimeter): 30.06 inches Hg (1018.0 mb)
Winds: from the NNE (20 degrees) at 21 MPH (18 knots; 9.3 m/s)
Visibility: 6 or more miles (10+ km)
Ceiling: 20000 feet AGL
Clouds: scattered clouds at 1500 feet AGL
scattered clouds at 10000 feet AGL
broken clouds at 20000 feet AGL
Weather: no significant weather observed at this time